Time;durP1;ratioP1;P1;durP2;ratioP2;P2;SDS_P1;SDS_P2;PMS_P1;PMS_P2;Temp;Humidity;BMP_temperature;BMP_pressure;BME280_temperature;BME280_humidity;BME280_pressure;Samples;Min_cycle;Max_cycle;Signal;HPM_P1;HPM_P2
2021/05/23 00:01:40;;;;;;;1.90;1.10;;;11.70;99.90;;;;;;5005378;28;20737;-76
2021/05/23 00:04:07;;;;;;;1.13;1.13;;;11.70;99.90;;;;;;5006825;28;20679;-76
2021/05/23 00:06:33;;;;;;;1.70;1.30;;;11.70;99.90;;;;;;5008963;28;20210;-76
2021/05/23 00:09:00;;;;;;;1.30;1.20;;;11.70;99.90;;;;;;5008903;28;20209;-77
2021/05/23 00:11:26;;;;;;;1.70;1.20;;;11.70;99.90;;;;;;5008829;28;20217;-77
2021/05/23 00:13:52;;;;;;;1.43;1.33;;;11.60;99.90;;;;;;5008881;28;20216;-77
2021/05/23 00:16:20;;;;;;;2.20;1.17;;;11.60;99.90;;;;;;5008977;28;20216;-78
2021/05/23 00:18:49;;;;;;;1.97;1.30;;;11.70;99.90;;;;;;5008609;28;20259;-76
2021/05/23 00:21:18;;;;;;;1.80;1.70;;;11.70;99.90;;;;;;5008808;28;20210;-81
2021/05/23 00:23:44;;;;;;;1.50;1.40;;;11.70;99.90;;;;;;5008911;28;20220;-77
2021/05/23 00:26:11;;;;;;;3.20;1.40;;;11.60;99.90;;;;;;5008820;28;20216;-76
2021/05/23 00:28:37;;;;;;;1.50;1.40;;;11.60;99.90;;;;;;5008810;28;20224;-77
2021/05/23 00:31:05;;;;;;;1.80;1.70;;;11.50;99.90;;;;;;5008761;28;20202;-76
2021/05/23 00:33:32;;;;;;;1.97;1.70;;;11.50;99.90;;;;;;5008614;28;20290;-76
2021/05/23 00:35:58;;;;;;;1.80;1.70;;;11.50;99.90;;;;;;5008437;28;20609;-76
2021/05/23 00:38:24;;;;;;;1.63;1.53;;;11.50;99.90;;;;;;5008614;28;20216;-77
2021/05/23 00:40:51;;;;;;;2.30;2.10;;;11.50;99.90;;;;;;5008703;28;20686;-76
2021/05/23 00:43:20;;;;;;;1.77;1.67;;;11.40;99.90;;;;;;5008038;28;20238;-76
2021/05/23 00:45:48;;;;;;;1.67;1.50;;;11.40;99.90;;;;;;5008408;28;20220;-76
2021/05/23 00:48:15;;;;;;;1.70;1.60;;;11.40;99.90;;;;;;5008345;28;20305;-76
2021/05/23 00:50:41;;;;;;;1.70;1.60;;;11.40;99.90;;;;;;5007892;28;20211;-76
2021/05/23 00:53:08;;;;;;;1.73;1.60;;;11.40;99.90;;;;;;5008309;28;20746;-76
2021/05/23 00:55:35;;;;;;;1.43;1.43;;;11.30;99.90;;;;;;5008275;28;20278;-76
2021/05/23 00:58:02;;;;;;;1.93;1.70;;;11.30;99.90;;;;;;5007949;28;20229;-76
2021/05/23 01:01:04;;;;;;;1.73;1.63;;;11.30;99.90;;;;;;5008037;28;20205;-76
2021/05/23 01:03:54;;;;;;;1.73;1.63;;;11.20;99.90;;;;;;5007787;28;20577;-79
2021/05/23 01:06:20;;;;;;;1.53;1.43;;;11.30;99.90;;;;;;5008031;28;20209;-77
2021/05/23 01:08:49;;;;;;;2.00;1.40;;;11.30;99.90;;;;;;5007979;28;20213;-78
2021/05/23 01:11:54;;;;;;;2.83;2.00;;;11.30;99.90;;;;;;5007947;28;20641;-78
2021/05/23 01:14:44;;;;;;;2.17;2.07;;;11.30;99.90;;;;;;5007484;28;20600;-79
2021/05/23 01:17:13;;;;;;;1.77;1.67;;;11.20;99.90;;;;;;5007977;28;20270;-79
2021/05/23 01:19:56;;;;;;;2.03;1.67;;;11.10;99.90;;;;;;5008015;28;20210;-79
2021/05/23 01:22:32;;;;;;;2.00;1.90;;;11.10;99.90;;;;;;5007914;28;20204;-78
2021/05/23 01:25:10;;;;;;;1.90;1.80;;;11.10;99.90;;;;;;5007772;28;20200;-78
2021/05/23 01:27:44;;;;;;;2.27;2.17;;;11.00;99.90;;;;;;5008024;28;20189;-79
2021/05/23 01:30:13;;;;;;;2.30;2.03;;;11.00;99.90;;;;;;5007443;28;20217;-79
2021/05/23 01:32:44;;;;;;;2.50;1.70;;;11.00;99.90;;;;;;5007981;28;20256;-79
2021/05/23 01:35:17;;;;;;;1.97;1.77;;;11.00;99.90;;;;;;5007170;28;20696;-79
2021/05/23 01:37:46;;;;;;;1.70;1.63;;;10.90;99.90;;;;;;5007213;28;20656;-79
2021/05/23 01:40:18;;;;;;;2.43;1.80;;;10.80;99.90;;;;;;5008089;28;20225;-80
2021/05/23 01:42:45;;;;;;;2.03;1.83;;;10.90;99.90;;;;;;5006934;28;20754;-79
2021/05/23 01:45:13;;;;;;;2.80;2.07;;;10.80;99.90;;;;;;5007742;28;20194;-79
2021/05/23 01:47:40;;;;;;;2.83;2.10;;;10.80;99.90;;;;;;5007676;28;20236;-78
2021/05/23 01:50:07;;;;;;;2.30;2.10;;;10.90;99.90;;;;;;5007397;28;20210;-78
2021/05/23 01:52:33;;;;;;;2.40;2.20;;;10.80;99.90;;;;;;5007635;28;20214;-78
2021/05/23 01:54:59;;;;;;;2.13;1.93;;;10.70;99.90;;;;;;5007399;28;20229;-79
2021/05/23 01:57:26;;;;;;;2.10;2.00;;;10.70;99.90;;;;;;5007184;28;20607;-78
2021/05/23 01:59:53;;;;;;;2.20;2.00;;;10.70;99.90;;;;;;5007253;28;20209;-77
2021/05/23 02:02:19;;;;;;;2.03;1.93;;;10.70;99.90;;;;;;5007180;28;20221;-76
2021/05/23 02:04:46;;;;;;;2.37;1.93;;;10.70;99.90;;;;;;5007072;28;20248;-78
2021/05/23 02:07:12;;;;;;;2.00;1.90;;;10.70;99.90;;;;;;5007448;28;20232;-78
2021/05/23 02:09:38;;;;;;;1.87;1.87;;;10.70;99.90;;;;;;5006853;28;20205;-77
2021/05/23 02:12:05;;;;;;;2.17;2.07;;;10.60;99.90;;;;;;5006868;28;20221;-78
2021/05/23 02:14:32;;;;;;;2.23;2.10;;;10.60;99.90;;;;;;5006900;28;20712;-78
2021/05/23 02:16:58;;;;;;;2.03;1.90;;;10.60;99.90;;;;;;5006823;28;20245;-78
2021/05/23 02:19:24;;;;;;;3.30;2.17;;;10.60;99.90;;;;;;5007099;28;20214;-77
2021/05/23 02:21:50;;;;;;;2.17;1.97;;;10.60;99.90;;;;;;5006992;28;20202;-77
2021/05/23 02:24:17;;;;;;;2.37;1.97;;;10.60;99.90;;;;;;5006972;28;20243;-77
2021/05/23 02:26:43;;;;;;;2.03;1.90;;;10.60;99.90;;;;;;5006226;28;20213;-77
2021/05/23 02:29:10;;;;;;;1.90;1.90;;;10.60;99.90;;;;;;5006751;28;20210;-77
2021/05/23 02:31:37;;;;;;;2.00;1.90;;;10.60;99.90;;;;;;5006992;28;20290;-77
2021/05/23 02:34:04;;;;;;;1.93;1.83;;;10.50;99.90;;;;;;5006325;28;20278;-77
2021/05/23 02:36:30;;;;;;;2.10;2.00;;;10.40;99.90;;;;;;5006696;28;20206;-76
2021/05/23 02:38:56;;;;;;;1.77;1.77;;;10.40;99.90;;;;;;5006516;28;20262;-76
2021/05/23 02:41:22;;;;;;;1.87;1.77;;;10.40;99.90;;;;;;5006729;28;20341;-77
2021/05/23 02:43:48;;;;;;;2.03;1.93;;;10.40;99.90;;;;;;5006108;28;20233;-76
2021/05/23 02:46:15;;;;;;;2.00;1.90;;;10.30;99.90;;;;;;5006469;28;20206;-77
2021/05/23 02:48:41;;;;;;;2.10;1.93;;;10.20;99.90;;;;;;5006393;28;20740;-76
2021/05/23 02:51:08;;;;;;;1.93;1.83;;;10.20;99.90;;;;;;5006492;28;20641;-76
2021/05/23 02:53:34;;;;;;;2.00;1.90;;;10.20;99.90;;;;;;5006381;28;20212;-76
2021/05/23 02:56:00;;;;;;;1.93;1.83;;;10.20;99.90;;;;;;5006251;28;20762;-76
2021/05/23 02:58:26;;;;;;;2.17;2.07;;;10.20;99.90;;;;;;5006112;28;20233;-76
2021/05/23 03:00:53;;;;;;;1.80;1.70;;;10.20;99.90;;;;;;5006347;28;20209;-76
2021/05/23 03:03:19;;;;;;;2.20;2.10;;;10.10;99.90;;;;;;5006165;28;20206;-76
2021/05/23 03:05:48;;;;;;;3.37;2.17;;;10.20;99.90;;;;;;5006194;28;20221;-76
2021/05/23 03:08:14;;;;;;;1.83;1.73;;;10.20;99.90;;;;;;5006490;28;20262;-77
2021/05/23 03:10:43;;;;;;;1.80;1.73;;;10.30;99.90;;;;;;5006315;28;20213;-76
2021/05/23 03:13:09;;;;;;;2.40;2.20;;;10.30;99.90;;;;;;5005982;28;20262;-76
2021/05/23 03:15:37;;;;;;;2.20;2.10;;;10.40;99.90;;;;;;5006098;28;20570;-77
2021/05/23 03:18:03;;;;;;;3.77;1.93;;;10.50;99.90;;;;;;5005961;28;20213;-76
2021/05/23 03:20:31;;;;;;;2.10;2.00;;;10.50;99.90;;;;;;5005848;28;20625;-76
2021/05/23 03:22:59;;;;;;;1.70;1.70;;;10.50;99.90;;;;;;5005491;28;20694;-76
2021/05/23 03:25:27;;;;;;;1.83;1.73;;;10.50;99.90;;;;;;5006257;28;20208;-76
2021/05/23 03:27:53;;;;;;;1.80;1.70;;;10.60;99.90;;;;;;5005525;28;20205;-76
2021/05/23 03:30:22;;;;;;;2.00;1.80;;;10.60;99.90;;;;;;5006016;28;20212;-77
2021/05/23 03:32:49;;;;;;;2.00;1.90;;;10.50;99.90;;;;;;5005718;28;20230;-76
2021/05/23 03:35:15;;;;;;;1.97;1.87;;;10.50;99.90;;;;;;5005913;28;20229;-76
2021/05/23 03:37:42;;;;;;;2.00;1.90;;;10.50;99.90;;;;;;5005905;28;20209;-76
2021/05/23 03:40:14;;;;;;;2.00;1.90;;;10.50;99.90;;;;;;5008411;28;20212;-76
2021/05/23 03:42:40;;;;;;;1.67;1.67;;;10.40;99.90;;;;;;5009305;28;20194;-76
2021/05/23 03:45:08;;;;;;;2.03;1.70;;;10.50;99.90;;;;;;5009318;28;20213;-79
2021/05/23 03:47:35;;;;;;;1.83;1.67;;;10.50;99.90;;;;;;5009396;28;20300;-79
2021/05/23 03:50:01;;;;;;;1.80;1.70;;;10.50;99.90;;;;;;5009605;28;20209;-79
2021/05/23 03:52:27;;;;;;;2.70;1.67;;;10.50;99.90;;;;;;5009289;28;20578;-80
2021/05/23 03:54:53;;;;;;;1.67;1.57;;;10.50;99.90;;;;;;5008931;28;20699;-78
2021/05/23 03:57:20;;;;;;;1.63;1.53;;;10.50;99.90;;;;;;5009094;28;20330;-79
2021/05/23 03:59:46;;;;;;;1.67;1.57;;;10.40;99.90;;;;;;5008680;28;20668;-76
2021/05/23 04:02:13;;;;;;;1.30;1.30;;;10.40;99.90;;;;;;5008746;28;20691;-77
2021/05/23 04:04:47;;;;;;;1.60;1.50;;;10.40;99.90;;;;;;5009243;28;20213;-77
2021/05/23 04:07:14;;;;;;;1.67;1.57;;;10.50;99.90;;;;;;5008784;28;20217;-76
2021/05/23 04:09:40;;;;;;;1.90;1.80;;;10.50;99.90;;;;;;5009328;28;20642;-76
2021/05/23 04:12:08;;;;;;;1.63;1.53;;;10.50;99.90;;;;;;5008756;28;20209;-76
2021/05/23 04:14:35;;;;;;;1.80;1.70;;;10.40;99.90;;;;;;5008605;28;20236;-77
2021/05/23 04:17:01;;;;;;;3.13;1.70;;;10.50;99.90;;;;;;5008774;28;20233;-78
2021/05/23 04:19:27;;;;;;;1.97;1.50;;;10.50;99.90;;;;;;5008776;28;20690;-77
2021/05/23 04:21:54;;;;;;;1.40;1.40;;;10.60;99.90;;;;;;5009215;28;20574;-78
2021/05/23 04:24:20;;;;;;;1.33;1.27;;;10.70;99.90;;;;;;5009058;28;20210;-77
2021/05/23 04:26:47;;;;;;;1.93;1.60;;;10.90;99.90;;;;;;5008790;28;20210;-77
2021/05/23 04:29:13;;;;;;;2.77;1.80;;;10.90;99.90;;;;;;5008337;28;20694;-77
2021/05/23 04:31:40;;;;;;;1.80;1.70;;;11.00;99.90;;;;;;5008641;28;20210;-77
2021/05/23 04:34:06;;;;;;;1.53;1.43;;;11.10;99.90;;;;;;5008473;28;20221;-76
2021/05/23 04:36:32;;;;;;;1.50;1.40;;;11.10;99.90;;;;;;5008544;28;20241;-76
2021/05/23 04:38:58;;;;;;;2.07;1.73;;;11.00;99.90;;;;;;5008393;28;20229;-76
2021/05/23 04:41:26;;;;;;;1.50;1.40;;;11.00;99.90;;;;;;5008617;28;20217;-76
2021/05/23 04:43:52;;;;;;;1.40;1.30;;;10.90;99.90;;;;;;5007927;28;20237;-76
2021/05/23 04:46:18;;;;;;;1.57;1.47;;;10.80;99.90;;;;;;5008437;28;20210;-76
2021/05/23 04:48:45;;;;;;;1.73;1.40;;;10.80;99.90;;;;;;5008173;28;20209;-77
2021/05/23 04:51:11;;;;;;;1.33;1.33;;;10.80;99.90;;;;;;5007721;28;20205;-77
2021/05/23 04:53:37;;;;;;;1.03;1.03;;;10.90;99.90;;;;;;5008433;28;20209;-77
2021/05/23 04:56:04;;;;;;;1.70;1.20;;;10.80;99.90;;;;;;5008255;28;20283;-77
2021/05/23 04:58:30;;;;;;;1.40;1.30;;;11.00;99.90;;;;;;5007696;28;20718;-78
2021/05/23 05:00:56;;;;;;;1.20;1.20;;;11.10;99.90;;;;;;5008237;28;20213;-78
2021/05/23 05:03:22;;;;;;;1.40;1.30;;;11.10;99.90;;;;;;5008368;28;20217;-77
2021/05/23 05:05:49;;;;;;;1.30;1.10;;;11.10;99.90;;;;;;5008392;28;20228;-78
2021/05/23 05:08:15;;;;;;;1.40;1.27;;;11.10;99.90;;;;;;5007939;28;20214;-78
2021/05/23 05:10:41;;;;;;;1.73;1.30;;;11.10;99.90;;;;;;5007874;28;20210;-78
2021/05/23 05:13:08;;;;;;;1.53;1.30;;;11.20;99.90;;;;;;5008190;28;20213;-78
2021/05/23 05:15:34;;;;;;;1.10;1.10;;;11.10;99.90;;;;;;5007834;28;20274;-78
2021/05/23 05:18:00;;;;;;;1.07;1.07;;;11.10;99.90;;;;;;5007791;28;20245;-78
2021/05/23 05:20:27;;;;;;;1.23;1.13;;;11.10;99.90;;;;;;5007899;28;20213;-79
2021/05/23 05:22:54;;;;;;;1.00;1.00;;;11.10;99.90;;;;;;5007746;28;20218;-78
2021/05/23 05:25:21;;;;;;;1.03;1.00;;;11.20;99.90;;;;;;5007674;28;20299;-77
2021/05/23 05:27:47;;;;;;;0.90;0.80;;;11.30;99.90;;;;;;5007758;28;20206;-78
2021/05/23 05:30:15;;;;;;;1.07;1.00;;;11.30;99.90;;;;;;5007563;28;20205;-78
2021/05/23 05:32:41;;;;;;;1.43;1.03;;;11.40;99.90;;;;;;5007727;28;20233;-78
2021/05/23 05:35:08;;;;;;;1.17;1.07;;;11.50;99.90;;;;;;5007332;28;20703;-78
2021/05/23 05:37:34;;;;;;;2.10;1.30;;;11.40;99.90;;;;;;5007408;28;20955;-79
2021/05/23 05:40:03;;;;;;;1.00;1.00;;;11.50;99.90;;;;;;5007688;28;20209;-78
2021/05/23 05:42:29;;;;;;;4.40;1.10;;;11.50;99.90;;;;;;5007629;28;20245;-79
2021/05/23 05:44:55;;;;;;;0.90;0.90;;;11.50;99.90;;;;;;5007632;28;20540;-76
2021/05/23 05:47:21;;;;;;;1.20;1.00;;;11.50;99.90;;;;;;5007395;28;20668;-77
2021/05/23 05:49:47;;;;;;;1.70;1.03;;;11.50;99.90;;;;;;5007497;28;20217;-76
2021/05/23 05:52:13;;;;;;;0.80;0.80;;;11.60;99.90;;;;;;5007329;28;20241;-77
2021/05/23 05:54:39;;;;;;;1.93;0.70;;;11.70;99.90;;;;;;5007322;28;20286;-77
2021/05/23 05:57:06;;;;;;;1.97;0.90;;;11.70;99.90;;;;;;5020600;28;20241;-74
2021/05/23 05:59:33;;;;;;;0.90;0.90;;;11.70;99.90;;;;;;5006523;28;20244;-75
2021/05/23 06:01:59;;;;;;;1.60;1.10;;;11.60;99.90;;;;;;5006247;28;20214;-76
2021/05/23 06:04:25;;;;;;;2.20;0.90;;;11.60;99.90;;;;;;5006694;28;20206;-76
2021/05/23 06:06:51;;;;;;;1.13;1.03;;;11.50;99.90;;;;;;5007076;28;20578;-77
2021/05/23 06:09:17;;;;;;;0.77;0.77;;;11.60;99.90;;;;;;5007145;28;20206;-76
2021/05/23 06:11:43;;;;;;;1.43;0.90;;;11.50;99.90;;;;;;5006974;28;20210;-75
2021/05/23 06:14:10;;;;;;;1.40;0.80;;;11.50;99.90;;;;;;5006817;28;20216;-75
2021/05/23 06:16:36;;;;;;;1.07;1.00;;;11.60;99.90;;;;;;5005872;28;20244;-75
2021/05/23 06:19:03;;;;;;;0.70;0.70;;;11.50;99.90;;;;;;4987019;28;20238;-75
2021/05/23 06:21:29;;;;;;;0.70;0.70;;;11.50;99.90;;;;;;4987182;28;20202;-76
2021/05/23 06:23:55;;;;;;;0.83;0.83;;;11.60;99.90;;;;;;4998889;28;20233;-76
2021/05/23 06:26:23;;;;;;;1.07;0.80;;;11.70;99.90;;;;;;5006395;28;20217;-76
2021/05/23 06:28:50;;;;;;;0.70;0.70;;;11.60;99.90;;;;;;4995586;28;20242;-77
2021/05/23 06:31:16;;;;;;;1.37;0.80;;;11.60;99.90;;;;;;5001083;28;20242;-76
2021/05/23 06:33:43;;;;;;;0.93;0.90;;;11.60;99.90;;;;;;5006403;28;20230;-78
2021/05/23 06:36:11;;;;;;;1.20;1.10;;;11.50;99.90;;;;;;4997069;28;20607;-76
2021/05/23 06:38:37;;;;;;;2.37;1.00;;;11.50;99.90;;;;;;4986601;28;20740;-76
2021/05/23 06:41:03;;;;;;;0.90;0.90;;;11.50;99.90;;;;;;4986673;28;20214;-76
2021/05/23 06:43:29;;;;;;;0.80;0.80;;;11.50;99.90;;;;;;4996888;28;20229;-76
2021/05/23 06:45:56;;;;;;;0.80;0.80;;;11.50;99.90;;;;;;5006441;28;20220;-77
2021/05/23 06:48:23;;;;;;;1.17;1.10;;;11.50;99.90;;;;;;5000725;28;20679;-74
2021/05/23 06:50:50;;;;;;;1.57;1.03;;;11.40;99.90;;;;;;5001395;28;20244;-76
2021/05/23 06:53:17;;;;;;;0.80;0.80;;;11.50;99.90;;;;;;5005979;28;20213;-75
2021/05/23 06:55:43;;;;;;;1.00;0.83;;;11.50;99.90;;;;;;5006154;28;20276;-77
2021/05/23 06:58:09;;;;;;;1.80;1.07;;;11.50;99.90;;;;;;5005566;28;20222;-76
2021/05/23 07:00:35;;;;;;;1.40;1.30;;;11.60;99.90;;;;;;5005799;28;20209;-76
2021/05/23 07:03:01;;;;;;;2.80;2.40;;;11.60;99.90;;;;;;4995382;28;20206;-76
2021/05/23 07:05:28;;;;;;;0.90;0.90;;;11.70;99.90;;;;;;5003675;28;20647;-77
2021/05/23 07:07:55;;;;;;;1.10;1.03;;;11.70;99.90;;;;;;4989800;28;20245;-77
2021/05/23 07:10:21;;;;;;;0.90;0.90;;;11.80;99.90;;;;;;5003899;28;20210;-77
2021/05/23 07:12:47;;;;;;;1.10;0.80;;;11.80;99.90;;;;;;5003600;28;20205;-77
2021/05/23 07:15:13;;;;;;;1.00;1.00;;;11.80;99.90;;;;;;5003621;28;20264;-76
2021/05/23 07:17:39;;;;;;;1.07;0.97;;;11.90;99.90;;;;;;5004048;28;20547;-78
2021/05/23 07:20:07;;;;;;;2.83;1.37;;;12.10;99.90;;;;;;4985507;28;20215;-80
2021/05/23 07:22:34;;;;;;;1.73;1.57;;;12.20;99.90;;;;;;4984794;28;20567;-80
2021/05/23 07:25:00;;;;;;;1.00;1.00;;;12.40;99.90;;;;;;4984287;28;20293;-77
2021/05/23 07:27:27;;;;;;;2.50;1.23;;;12.30;99.90;;;;;;4984714;28;20210;-77
2021/05/23 07:29:53;;;;;;;1.57;1.00;;;12.40;99.90;;;;;;4984438;28;20214;-77
2021/05/23 07:32:19;;;;;;;1.80;0.93;;;12.40;99.90;;;;;;4984362;28;20276;-77
2021/05/23 07:34:45;;;;;;;1.10;1.00;;;12.50;99.90;;;;;;4983587;28;20664;-76
2021/05/23 07:37:11;;;;;;;1.57;0.90;;;12.50;99.90;;;;;;4983805;28;20210;-77
2021/05/23 07:39:39;;;;;;;2.63;0.80;;;12.50;99.90;;;;;;4983798;28;20217;-77
2021/05/23 07:42:05;;;;;;;2.60;1.00;;;12.60;99.90;;;;;;4983824;28;20210;-76
2021/05/23 07:44:32;;;;;;;3.20;0.90;;;12.50;99.90;;;;;;4983556;28;20285;-77
2021/05/23 07:46:58;;;;;;;1.83;1.10;;;12.50;99.90;;;;;;4984464;28;20214;-77
2021/05/23 07:49:24;;;;;;;2.87;1.40;;;12.50;99.90;;;;;;4983629;28;20210;-77
2021/05/23 07:51:50;;;;;;;1.87;1.07;;;12.50;99.90;;;;;;4984023;28;20213;-77
2021/05/23 07:54:16;;;;;;;3.20;2.40;;;12.50;99.90;;;;;;4983647;28;20221;-77
2021/05/23 07:56:45;;;;;;;1.67;1.57;;;12.50;99.90;;;;;;4983977;28;20291;-77
2021/05/23 07:59:11;;;;;;;2.07;1.87;;;12.60;99.90;;;;;;4983705;28;20217;-77
2021/05/23 08:01:37;;;;;;;1.53;1.43;;;12.60;99.90;;;;;;4984084;28;20221;-77
2021/05/23 08:04:03;;;;;;;2.30;1.80;;;12.80;99.90;;;;;;4984050;28;20210;-77
2021/05/23 08:06:31;;;;;;;1.70;1.60;;;12.90;99.90;;;;;;4984062;28;20244;-77
2021/05/23 08:08:57;;;;;;;2.30;1.70;;;13.10;99.90;;;;;;4994369;28;21009;-77
2021/05/23 08:11:23;;;;;;;2.00;1.70;;;13.30;99.90;;;;;;5003680;28;20218;-77
2021/05/23 08:13:50;;;;;;;3.63;1.40;;;13.40;99.90;;;;;;5003889;28;20243;-77
2021/05/23 08:16:17;;;;;;;1.80;1.60;;;13.30;99.90;;;;;;5003385;28;20236;-79
2021/05/23 08:18:43;;;;;;;3.60;2.53;;;13.30;99.90;;;;;;5003578;28;20258;-77
2021/05/23 08:21:09;;;;;;;1.90;1.23;;;13.50;99.90;;;;;;5003016;28;20402;-77
2021/05/23 08:23:36;;;;;;;2.47;1.13;;;13.50;99.90;;;;;;5003043;28;20623;-76
2021/05/23 08:26:02;;;;;;;2.20;1.27;;;13.40;99.90;;;;;;5005620;28;20220;-77
2021/05/23 08:28:31;;;;;;;1.10;1.10;;;13.50;99.90;;;;;;5006485;28;20240;-78
2021/05/23 08:30:58;;;;;;;1.27;0.73;;;13.50;99.90;;;;;;5001999;28;20209;-77
2021/05/23 08:33:25;;;;;;;1.70;0.80;;;13.70;99.90;;;;;;5004427;28;20225;-78
2021/05/23 08:35:51;;;;;;;1.90;1.20;;;13.30;99.90;;;;;;5006268;28;20267;-77
2021/05/23 08:38:17;;;;;;;0.67;0.67;;;13.20;99.90;;;;;;5000177;28;20245;-79
2021/05/23 08:40:44;;;;;;;7.60;6.90;;;13.10;99.90;;;;;;4999578;28;20325;-78
2021/05/23 08:43:12;;;;;;;1.33;1.23;;;13.10;99.90;;;;;;5006156;28;20245;-77
2021/05/23 08:45:38;;;;;;;1.10;1.10;;;13.20;99.90;;;;;;5005520;28;20667;-77
2021/05/23 08:48:06;;;;;;;1.07;1.07;;;13.00;99.90;;;;;;4991634;28;20210;-78
2021/05/23 08:50:33;;;;;;;1.60;1.50;;;13.10;99.90;;;;;;5006510;28;20202;-78
2021/05/23 08:53:01;;;;;;;1.23;1.13;;;13.20;99.90;;;;;;4995787;28;20224;-78
2021/05/23 08:55:30;;;;;;;1.23;1.23;;;13.30;99.90;;;;;;4990761;28;20328;-78
2021/05/23 08:57:58;;;;;;;1.60;1.40;;;13.40;99.90;;;;;;4986647;28;20223;-75
2021/05/23 09:00:25;;;;;;;2.00;1.27;;;13.30;99.90;;;;;;4986182;28;20214;-76
2021/05/23 09:02:54;;;;;;;1.00;1.00;;;13.40;99.90;;;;;;5004430;28;20209;-77
2021/05/23 09:05:28;;;;;;;1.20;1.20;;;13.50;99.90;;;;;;5006090;28;20225;-78
2021/05/23 09:07:54;;;;;;;1.50;1.40;;;13.30;99.90;;;;;;5004477;28;20252;-78
2021/05/23 09:10:24;;;;;;;1.20;1.10;;;13.20;99.90;;;;;;5001301;28;20210;-77
2021/05/23 09:12:50;;;;;;;2.90;2.20;;;13.30;99.90;;;;;;5005301;28;20214;-77
2021/05/23 09:15:17;;;;;;;1.17;1.00;;;13.40;99.90;;;;;;5005245;28;20237;-76
2021/05/23 09:17:43;;;;;;;0.87;0.80;;;13.30;99.90;;;;;;5001814;28;20300;-76
2021/05/23 09:20:17;;;;;;;1.43;1.00;;;13.30;99.90;;;;;;5005294;28;20688;-76
2021/05/23 09:22:50;;;;;;;1.37;1.20;;;13.50;99.90;;;;;;5004646;28;20198;-77
2021/05/23 09:25:28;;;;;;;2.10;1.20;;;13.40;99.90;;;;;;5005442;28;20205;-77
2021/05/23 09:27:55;;;;;;;1.93;1.00;;;13.30;99.90;;;;;;5005631;28;20201;-76
2021/05/23 09:30:23;;;;;;;2.97;1.20;;;13.50;99.90;;;;;;5005233;28;20625;-76
2021/05/23 09:32:52;;;;;;;0.90;0.90;;;13.70;99.90;;;;;;5005664;28;20234;-76
2021/05/23 09:35:19;;;;;;;1.17;0.60;;;13.70;99.90;;;;;;5005586;28;20226;-76
2021/05/23 09:37:57;;;;;;;0.50;0.50;;;14.00;99.90;;;;;;5004242;28;20216;-76
2021/05/23 09:40:26;;;;;;;0.53;0.50;;;14.40;99.90;;;;;;5005131;28;20205;-76
2021/05/23 09:42:54;;;;;;;0.60;0.30;;;14.50;99.90;;;;;;5004827;28;20247;-76
2021/05/23 09:45:22;;;;;;;0.20;0.20;;;14.70;99.90;;;;;;5004982;28;20827;-75
2021/05/23 09:47:53;;;;;;;0.30;0.30;;;14.60;99.90;;;;;;5005323;28;20247;-77
2021/05/23 09:50:35;;;;;;;0.67;0.30;;;14.80;99.90;;;;;;5005348;28;20201;-76
2021/05/23 09:53:02;;;;;;;0.93;0.43;;;15.00;99.90;;;;;;5004784;28;20250;-76
2021/05/23 09:55:28;;;;;;;0.50;0.50;;;15.00;99.90;;;;;;5004527;28;20703;-76
2021/05/23 09:57:55;;;;;;;0.90;0.90;;;14.80;99.90;;;;;;5005147;28;20236;-77
2021/05/23 10:00:22;;;;;;;0.60;0.60;;;14.90;99.90;;;;;;5005851;28;20736;-87
2021/05/23 10:02:52;;;;;;;0.50;0.50;;;14.90;99.90;;;;;;5007297;28;20216;-81
2021/05/23 10:05:18;;;;;;;2.23;2.10;;;14.90;99.90;;;;;;5006089;28;20213;-81
2021/05/23 10:07:45;;;;;;;2.07;1.97;;;14.90;99.90;;;;;;5005752;28;20700;-82
2021/05/23 10:10:13;;;;;;;1.63;1.30;;;15.10;99.90;;;;;;5006003;28;20209;-78
2021/05/23 10:12:40;;;;;;;0.70;0.70;;;15.10;99.90;;;;;;5005577;28;20227;-81
2021/05/23 10:15:07;;;;;;;0.50;0.50;;;15.10;99.90;;;;;;5005432;28;20225;-81
2021/05/23 10:17:35;;;;;;;0.50;0.50;;;15.10;99.90;;;;;;5005613;28;20218;-78
2021/05/23 10:20:03;;;;;;;0.60;0.60;;;15.10;99.90;;;;;;5004651;28;20209;-79
2021/05/23 10:22:34;;;;;;;1.27;0.60;;;15.40;99.90;;;;;;5005040;28;20209;-80
2021/05/23 10:25:03;;;;;;;0.60;0.60;;;15.60;99.90;;;;;;5004223;28;20703;-77
2021/05/23 10:27:39;;;;;;;0.80;0.80;;;15.70;99.90;;;;;;5004776;28;20223;-78
2021/05/23 10:30:08;;;;;;;0.60;0.60;;;15.40;99.90;;;;;;5004902;28;20201;-81
2021/05/23 10:32:36;;;;;;;0.90;0.90;;;15.30;99.90;;;;;;5004751;28;21033;-80
2021/05/23 10:35:13;;;;;;;0.90;0.90;;;15.30;99.90;;;;;;5005392;28;20211;-81
2021/05/23 10:37:41;;;;;;;1.27;1.03;;;15.40;99.90;;;;;;5005846;28;20783;-82
2021/05/23 10:40:18;;;;;;;2.10;0.77;;;15.30;99.90;;;;;;5005175;28;20539;-83
2021/05/23 10:42:53;;;;;;;0.70;0.70;;;15.40;99.90;;;;;;5005392;28;20219;-81
2021/05/23 10:45:28;;;;;;;0.77;0.70;;;15.30;99.90;;;;;;5006458;28;20193;-82
2021/05/23 10:47:56;;;;;;;1.80;1.20;;;15.20;99.90;;;;;;5006787;28;20205;-87
2021/05/23 10:50:40;;;;;;;2.07;1.03;;;15.20;99.90;;;;;;5009134;28;20567;-87
2021/05/23 10:53:07;;;;;;;0.87;0.87;;;15.20;99.90;;;;;;5008110;28;20198;-88
2021/05/23 10:55:35;;;;;;;1.50;1.40;;;15.00;99.90;;;;;;5007642;28;20237;-88
2021/05/23 10:58:03;;;;;;;1.10;1.10;;;14.90;99.90;;;;;;5006217;28;20217;-86
2021/05/23 11:00:32;;;;;;;1.40;1.30;;;14.90;99.90;;;;;;5008196;28;20266;-88
2021/05/23 11:03:10;;;;;;;1.83;1.73;;;15.00;99.90;;;;;;5008318;28;20205;-86
2021/05/23 11:05:36;;;;;;;1.40;1.30;;;15.00;99.90;;;;;;5006417;28;20216;-87
2021/05/23 11:08:04;;;;;;;1.50;1.40;;;15.20;99.90;;;;;;5008323;28;20209;-88
2021/05/23 11:10:38;;;;;;;1.60;1.60;;;15.20;99.90;;;;;;5008182;28;20210;-86
2021/05/23 11:13:06;;;;;;;0.90;0.90;;;15.40;99.90;;;;;;5007261;28;20256;-85
2021/05/23 11:15:43;;;;;;;1.20;1.10;;;15.40;99.90;;;;;;5004457;28;20225;-82
2021/05/23 11:18:13;;;;;;;2.33;1.17;;;15.60;99.90;;;;;;5005379;28;20232;-84
2021/05/23 11:20:39;;;;;;;1.23;1.20;;;15.70;99.90;;;;;;5006138;28;20283;-88
2021/05/23 11:23:08;;;;;;;1.00;1.00;;;16.10;99.90;;;;;;5005739;28;20262;-84
2021/05/23 11:25:37;;;;;;;0.90;0.90;;;16.60;99.90;;;;;;5004657;28;20225;-81
2021/05/23 11:28:06;;;;;;;1.00;1.00;;;16.80;99.90;;;;;;5005819;28;20212;-82
2021/05/23 11:30:35;;;;;;;1.00;0.90;;;16.80;99.90;;;;;;5005918;28;20664;-87
2021/05/23 11:33:04;;;;;;;0.70;0.70;;;16.80;99.90;;;;;;5006028;28;20282;-88
2021/05/23 11:35:32;;;;;;;1.70;0.70;;;16.30;99.90;;;;;;5004269;28;20605;-79
2021/05/23 11:38:00;;;;;;;2.23;1.00;;;16.50;99.90;;;;;;5005610;28;20213;-83
2021/05/23 11:40:35;;;;;;;1.00;1.00;;;16.80;99.90;;;;;;5004875;28;20221;-81
2021/05/23 11:43:14;;;;;;;1.30;0.97;;;16.80;99.90;;;;;;5004056;28;20606;-81
2021/05/23 11:45:53;;;;;;;0.77;0.77;;;17.00;99.90;;;;;;5004257;28;20292;-83
2021/05/23 11:48:30;;;;;;;1.10;1.10;;;17.20;99.90;;;;;;5002361;28;20726;-82
2021/05/23 11:50:56;;;;;;;1.43;0.80;;;17.20;99.90;;;;;;5002328;28;20223;-82
2021/05/23 11:53:33;;;;;;;0.63;0.63;;;17.20;99.90;;;;;;5004378;28;20217;-81
2021/05/23 11:55:59;;;;;;;0.80;0.80;;;17.50;99.90;;;;;;5003861;28;21144;-80
2021/05/23 11:58:26;;;;;;;1.60;0.70;;;17.20;99.90;;;;;;5006289;28;20577;-81
2021/05/23 12:00:53;;;;;;;0.60;0.60;;;16.80;99.90;;;;;;5007470;28;20255;-82
2021/05/23 12:03:19;;;;;;;4.50;0.50;;;16.90;99.90;;;;;;5008933;28;20558;-86
2021/05/23 12:05:46;;;;;;;0.73;0.73;;;17.00;99.90;;;;;;5009428;28;20243;-83
2021/05/23 12:08:20;;;;;;;0.60;0.60;;;17.10;99.90;;;;;;5010217;28;20571;-89
2021/05/23 12:11:01;;;;;;;0.70;0.70;;;17.20;99.90;;;;;;5009212;28;20256;-79
2021/05/23 12:13:42;;;;;;;0.60;0.60;;;17.40;99.90;;;;;;5007179;28;20194;-79
2021/05/23 12:16:10;;;;;;;0.50;0.50;;;17.50;99.90;;;;;;5006947;28;20237;-79
2021/05/23 12:18:39;;;;;;;0.50;0.50;;;17.60;99.90;;;;;;5007605;28;20270;-78
2021/05/23 12:21:07;;;;;;;1.83;1.73;;;17.50;99.90;;;;;;5007236;28;20214;-78
2021/05/23 12:23:33;;;;;;;7.13;6.43;;;17.00;99.90;;;;;;5006986;28;20826;-78
2021/05/23 12:26:00;;;;;;;0.50;0.50;;;16.90;99.90;;;;;;5006659;28;20305;-79
2021/05/23 12:28:38;;;;;;;0.50;0.50;;;17.00;99.90;;;;;;5007254;28;20232;-79
2021/05/23 12:31:06;;;;;;;0.50;0.50;;;17.30;99.90;;;;;;5006393;28;20234;-80
2021/05/23 12:33:34;;;;;;;0.40;0.40;;;17.40;99.90;;;;;;5007267;28;20217;-79
2021/05/23 12:36:12;;;;;;;0.30;0.30;;;17.50;99.90;;;;;;5005802;28;20229;-79
2021/05/23 12:38:39;;;;;;;0.40;0.40;;;17.90;99.90;;;;;;5003845;28;20221;-77
2021/05/23 12:41:06;;;;;;;0.47;0.47;;;18.20;99.90;;;;;;4993061;28;20593;-77
2021/05/23 12:43:34;;;;;;;0.23;0.23;;;18.20;99.90;;;;;;4987037;28;20246;-77
2021/05/23 12:46:02;;;;;;;1.50;0.50;;;18.00;99.90;;;;;;4989998;28;20233;-77
2021/05/23 12:48:33;;;;;;;1.03;0.37;;;17.60;99.90;;;;;;5000775;28;20700;-77
2021/05/23 12:51:01;;;;;;;0.37;0.33;;;17.50;99.90;;;;;;4986988;28;20255;-77
2021/05/23 12:53:29;;;;;;;0.20;0.20;;;17.70;99.90;;;;;;4990560;28;20691;-77